Saint Inigoes, Maryland
Current Conditions -  °F | °C
As of 11:53 AM on Saturday 22 Nov 2014 (Local Time) from KNUI Reporting Station
Clear Clear  
Wind Chill: 37°   Ceiling: Unl
Heat Index: 44°   Visibility: 10mi
Dew Point: 17°   Wind: 14mph
Humidity: 34%   Direction: 180°S
Pressure: 30.47"   Gusts: 21mph
Location:  38.17°N, 76.41°W
Report Text: KNUI 221653Z AUTO 18012G18KT 10SM CLR 07/M08 A3047 RMK AO2 SLP317 T00671083
Loading
Personal Weather Stations






























Interactive Weather Map New forecast layout! Learn more

10-Day Weather Forecast

Advertisements
Track Severe Weather on mobile